sensor_id;sensor_type;location;lat;lon;timestamp;temperature;humidity
32476;DHT22;18929;48.008;10.882;2023-05-07T00:00:35;16.60;99.90
32476;DHT22;18929;48.008;10.882;2023-05-07T00:03:02;17.00;99.90
32476;DHT22;18929;48.008;10.882;2023-05-07T00:05:29;17.50;99.90
32476;DHT22;18929;48.008;10.882;2023-05-07T00:07:56;17.50;99.90
32476;DHT22;18929;48.008;10.882;2023-05-07T00:10:23;17.80;99.90
32476;DHT22;18929;48.008;10.882;2023-05-07T00:12:50;17.50;99.90
32476;DHT22;18929;48.008;10.882;2023-05-07T00:15:19;17.50;99.90
32476;DHT22;18929;48.008;10.882;2023-05-07T00:17:45;17.70;99.90
32476;DHT22;18929;48.008;10.882;2023-05-07T00:20:12;17.50;99.90
32476;DHT22;18929;48.008;10.882;2023-05-07T00:22:39;17.40;99.90
32476;DHT22;18929;48.008;10.882;2023-05-07T00:25:06;17.20;99.90
32476;DHT22;18929;48.008;10.882;2023-05-07T00:27:33;17.20;99.90
32476;DHT22;18929;48.008;10.882;2023-05-07T00:30:00;17.20;99.90
32476;DHT22;18929;48.008;10.882;2023-05-07T00:32:28;17.40;99.90
32476;DHT22;18929;48.008;10.882;2023-05-07T00:34:55;17.30;99.90
32476;DHT22;18929;48.008;10.882;2023-05-07T00:37:22;17.20;99.90
32476;DHT22;18929;48.008;10.882;2023-05-07T00:39:48;17.20;99.90
32476;DHT22;18929;48.008;10.882;2023-05-07T00:42:15;17.10;99.90
32476;DHT22;18929;48.008;10.882;2023-05-07T00:44:42;17.00;99.90
32476;DHT22;18929;48.008;10.882;2023-05-07T00:47:09;16.50;99.90
32476;DHT22;18929;48.008;10.882;2023-05-07T00:49:39;17.00;99.90
32476;DHT22;18929;48.008;10.882;2023-05-07T00:52:06;17.20;99.90
32476;DHT22;18929;48.008;10.882;2023-05-07T00:54:34;17.00;99.90
32476;DHT22;18929;48.008;10.882;2023-05-07T00:57:01;16.90;99.90
32476;DHT22;18929;48.008;10.882;2023-05-07T00:59:28;16.20;99.90
32476;DHT22;18929;48.008;10.882;2023-05-07T01:01:55;16.60;99.90
32476;DHT22;18929;48.008;10.882;2023-05-07T01:04:22;16.50;99.90
32476;DHT22;18929;48.008;10.882;2023-05-07T01:06:50;16.80;99.90
32476;DHT22;18929;48.008;10.882;2023-05-07T01:09:17;16.90;99.90
32476;DHT22;18929;48.008;10.882;2023-05-07T01:11:45;16.90;99.90
32476;DHT22;18929;48.008;10.882;2023-05-07T01:14:13;16.80;99.90
32476;DHT22;18929;48.008;10.882;2023-05-07T01:16:40;16.70;99.90
32476;DHT22;18929;48.008;10.882;2023-05-07T01:19:07;16.80;99.90
32476;DHT22;18929;48.008;10.882;2023-05-07T01:21:36;16.80;99.90
32476;DHT22;18929;48.008;10.882;2023-05-07T01:24:05;16.70;99.90
32476;DHT22;18929;48.008;10.882;2023-05-07T01:26:32;16.70;99.90
32476;DHT22;18929;48.008;10.882;2023-05-07T01:28:59;16.70;99.90
32476;DHT22;18929;48.008;10.882;2023-05-07T01:31:26;16.60;99.90
32476;DHT22;18929;48.008;10.882;2023-05-07T01:33:53;16.60;99.90
32476;DHT22;18929;48.008;10.882;2023-05-07T01:36:20;16.30;99.90
32476;DHT22;18929;48.008;10.882;2023-05-07T01:38:49;16.60;99.90
32476;DHT22;18929;48.008;10.882;2023-05-07T01:41:18;16.70;99.90
32476;DHT22;18929;48.008;10.882;2023-05-07T01:43:45;16.70;99.90
32476;DHT22;18929;48.008;10.882;2023-05-07T01:46:12;16.50;99.90
32476;DHT22;18929;48.008;10.882;2023-05-07T01:48:40;16.50;99.90
32476;DHT22;18929;48.008;10.882;2023-05-07T01:51:11;16.50;99.90
32476;DHT22;18929;48.008;10.882;2023-05-07T01:53:38;16.50;99.90
32476;DHT22;18929;48.008;10.882;2023-05-07T01:56:06;16.50;99.90
32476;DHT22;18929;48.008;10.882;2023-05-07T01:58:34;16.40;99.90
32476;DHT22;18929;48.008;10.882;2023-05-07T02:01:01;16.40;99.90
32476;DHT22;18929;48.008;10.882;2023-05-07T02:03:28;16.30;99.90
32476;DHT22;18929;48.008;10.882;2023-05-07T02:05:54;16.30;99.90
32476;DHT22;18929;48.008;10.882;2023-05-07T02:08:21;16.50;99.90
32476;DHT22;18929;48.008;10.882;2023-05-07T02:10:48;16.40;99.90
32476;DHT22;18929;48.008;10.882;2023-05-07T02:13:15;16.30;99.90
32476;DHT22;18929;48.008;10.882;2023-05-07T02:15:43;16.30;99.90
32476;DHT22;18929;48.008;10.882;2023-05-07T02:18:15;16.30;99.90
32476;DHT22;18929;48.008;10.882;2023-05-07T02:20:42;16.30;99.90
32476;DHT22;18929;48.008;10.882;2023-05-07T02:23:09;16.20;99.90
32476;DHT22;18929;48.008;10.882;2023-05-07T02:25:36;16.20;99.90
32476;DHT22;18929;48.008;10.882;2023-05-07T02:28:02;16.30;99.90
32476;DHT22;18929;48.008;10.882;2023-05-07T02:30:29;16.30;99.90
32476;DHT22;18929;48.008;10.882;2023-05-07T02:32:57;16.40;99.90
32476;DHT22;18929;48.008;10.882;2023-05-07T02:35:24;16.40;99.90
32476;DHT22;18929;48.008;10.882;2023-05-07T02:37:51;16.20;99.90
32476;DHT22;18929;48.008;10.882;2023-05-07T02:40:18;15.30;99.90
32476;DHT22;18929;48.008;10.882;2023-05-07T02:42:44;14.10;99.90
32476;DHT22;18929;48.008;10.882;2023-05-07T02:45:11;15.00;99.90
32476;DHT22;18929;48.008;10.882;2023-05-07T02:47:38;15.40;99.90
32476;DHT22;18929;48.008;10.882;2023-05-07T02:50:07;15.80;99.90
32476;DHT22;18929;48.008;10.882;2023-05-07T02:52:34;15.90;99.90
32476;DHT22;18929;48.008;10.882;2023-05-07T02:55:01;15.90;99.90
32476;DHT22;18929;48.008;10.882;2023-05-07T02:57:28;15.90;99.90
32476;DHT22;18929;48.008;10.882;2023-05-07T02:59:54;15.80;99.90
32476;DHT22;18929;48.008;10.882;2023-05-07T03:02:21;15.80;99.90
32476;DHT22;18929;48.008;10.882;2023-05-07T03:04:48;16.00;99.90
32476;DHT22;18929;48.008;10.882;2023-05-07T03:07:16;16.00;99.90
32476;DHT22;18929;48.008;10.882;2023-05-07T03:09:43;15.80;99.90
32476;DHT22;18929;48.008;10.882;2023-05-07T03:12:10;15.80;99.90
32476;DHT22;18929;48.008;10.882;2023-05-07T03:14:37;15.90;99.90
32476;DHT22;18929;48.008;10.882;2023-05-07T03:17:04;15.80;99.90
32476;DHT22;18929;48.008;10.882;2023-05-07T03:19:31;15.70;99.90
32476;DHT22;18929;48.008;10.882;2023-05-07T03:21:57;15.70;99.90
32476;DHT22;18929;48.008;10.882;2023-05-07T03:24:26;15.70;99.90
32476;DHT22;18929;48.008;10.882;2023-05-07T03:26:52;15.60;99.90
32476;DHT22;18929;48.008;10.882;2023-05-07T03:29:19;15.20;99.90
32476;DHT22;18929;48.008;10.882;2023-05-07T03:31:46;15.50;99.90
32476;DHT22;18929;48.008;10.882;2023-05-07T03:34:13;15.60;99.90
32476;DHT22;18929;48.008;10.882;2023-05-07T03:36:40;15.60;99.90
32476;DHT22;18929;48.008;10.882;2023-05-07T03:39:07;15.60;99.90
32476;DHT22;18929;48.008;10.882;2023-05-07T03:41:35;15.50;99.90
32476;DHT22;18929;48.008;10.882;2023-05-07T03:44:02;15.40;99.90
32476;DHT22;18929;48.008;10.882;2023-05-07T03:46:28;15.40;99.90
32476;DHT22;18929;48.008;10.882;2023-05-07T03:48:55;15.50;99.90
32476;DHT22;18929;48.008;10.882;2023-05-07T03:51:22;15.50;99.90
32476;DHT22;18929;48.008;10.882;2023-05-07T03:53:49;15.60;99.90
32476;DHT22;18929;48.008;10.882;2023-05-07T03:56:18;15.50;99.90
32476;DHT22;18929;48.008;10.882;2023-05-07T03:58:46;15.30;99.90
32476;DHT22;18929;48.008;10.882;2023-05-07T04:01:13;15.20;99.90
32476;DHT22;18929;48.008;10.882;2023-05-07T04:03:40;15.10;99.90
32476;DHT22;18929;48.008;10.882;2023-05-07T04:06:07;15.30;99.90
32476;DHT22;18929;48.008;10.882;2023-05-07T04:08:34;15.40;99.90
32476;DHT22;18929;48.008;10.882;2023-05-07T04:11:00;15.20;99.90
32476;DHT22;18929;48.008;10.882;2023-05-07T04:13:27;15.30;99.90
32476;DHT22;18929;48.008;10.882;2023-05-07T04:15:55;15.20;99.90
32476;DHT22;18929;48.008;10.882;2023-05-07T04:18:22;15.20;99.90
32476;DHT22;18929;48.008;10.882;2023-05-07T04:20:49;15.20;99.90
32476;DHT22;18929;48.008;10.882;2023-05-07T04:23:16;15.10;99.90
32476;DHT22;18929;48.008;10.882;2023-05-07T04:25:43;15.10;99.90
32476;DHT22;18929;48.008;10.882;2023-05-07T04:28:10;15.10;99.90
32476;DHT22;18929;48.008;10.882;2023-05-07T04:30:37;14.80;99.90
32476;DHT22;18929;48.008;10.882;2023-05-07T04:33:07;14.90;99.90
32476;DHT22;18929;48.008;10.882;2023-05-07T04:35:34;14.80;99.90
32476;DHT22;18929;48.008;10.882;2023-05-07T04:38:01;14.70;99.90
32476;DHT22;18929;48.008;10.882;2023-05-07T04:40:28;15.00;99.90
32476;DHT22;18929;48.008;10.882;2023-05-07T04:42:55;15.00;99.90
32476;DHT22;18929;48.008;10.882;2023-05-07T04:45:22;15.10;99.90
32476;DHT22;18929;48.008;10.882;2023-05-07T04:47:49;15.20;99.90
32476;DHT22;18929;48.008;10.882;2023-05-07T04:50:17;15.10;99.90
32476;DHT22;18929;48.008;10.882;2023-05-07T04:52:45;15.30;99.90
32476;DHT22;18929;48.008;10.882;2023-05-07T04:55:12;15.20;99.90
32476;DHT22;18929;48.008;10.882;2023-05-07T04:57:38;15.20;99.90
32476;DHT22;18929;48.008;10.882;2023-05-07T05:00:07;15.20;99.90
32476;DHT22;18929;48.008;10.882;2023-05-07T05:02:34;15.10;99.90
32476;DHT22;18929;48.008;10.882;2023-05-07T05:05:01;15.20;99.90
32476;DHT22;18929;48.008;10.882;2023-05-07T05:07:29;15.30;99.90
32476;DHT22;18929;48.008;10.882;2023-05-07T05:09:56;15.20;99.90
32476;DHT22;18929;48.008;10.882;2023-05-07T05:12:31;15.10;99.90
32476;DHT22;18929;48.008;10.882;2023-05-07T05:14:58;15.10;99.90
32476;DHT22;18929;48.008;10.882;2023-05-07T05:17:24;15.20;99.90
32476;DHT22;18929;48.008;10.882;2023-05-07T05:19:51;15.30;99.90
32476;DHT22;18929;48.008;10.882;2023-05-07T05:22:18;15.20;99.90
32476;DHT22;18929;48.008;10.882;2023-05-07T05:24:46;15.00;99.90
32476;DHT22;18929;48.008;10.882;2023-05-07T05:27:13;14.30;99.90
32476;DHT22;18929;48.008;10.882;2023-05-07T05:29:40;13.60;99.90
32476;DHT22;18929;48.008;10.882;2023-05-07T05:32:07;14.00;99.90
32476;DHT22;18929;48.008;10.882;2023-05-07T05:34:33;15.20;99.90
32476;DHT22;18929;48.008;10.882;2023-05-07T05:37:00;15.40;99.90
32476;DHT22;18929;48.008;10.882;2023-05-07T05:39:27;15.70;99.90
32476;DHT22;18929;48.008;10.882;2023-05-07T05:41:55;16.10;99.90
32476;DHT22;18929;48.008;10.882;2023-05-07T05:44:22;16.40;99.90
32476;DHT22;18929;48.008;10.882;2023-05-07T05:49:26;17.10;99.90
32476;DHT22;18929;48.008;10.882;2023-05-07T05:51:52;16.60;99.90
32476;DHT22;18929;48.008;10.882;2023-05-07T05:54:19;16.20;99.90
32476;DHT22;18929;48.008;10.882;2023-05-07T05:56:46;16.20;99.90
32476;DHT22;18929;48.008;10.882;2023-05-07T05:59:14;17.10;99.90
32476;DHT22;18929;48.008;10.882;2023-05-07T06:01:41;17.60;99.90
32476;DHT22;18929;48.008;10.882;2023-05-07T06:04:08;17.30;99.90
32476;DHT22;18929;48.008;10.882;2023-05-07T06:06:35;18.00;99.90
32476;DHT22;18929;48.008;10.882;2023-05-07T06:09:02;17.30;99.90
32476;DHT22;18929;48.008;10.882;2023-05-07T06:11:29;16.90;99.90
32476;DHT22;18929;48.008;10.882;2023-05-07T06:13:55;17.40;99.90
32476;DHT22;18929;48.008;10.882;2023-05-07T06:16:24;17.70;99.90
32476;DHT22;18929;48.008;10.882;2023-05-07T06:18:51;16.80;99.90
32476;DHT22;18929;48.008;10.882;2023-05-07T06:21:17;16.30;99.90
32476;DHT22;18929;48.008;10.882;2023-05-07T06:23:44;15.70;99.90
32476;DHT22;18929;48.008;10.882;2023-05-07T06:26:11;15.50;99.90
32476;DHT22;18929;48.008;10.882;2023-05-07T06:28:38;15.70;99.90
32476;DHT22;18929;48.008;10.882;2023-05-07T06:31:11;16.10;99.90
32476;DHT22;18929;48.008;10.882;2023-05-07T06:33:39;15.20;99.90
32476;DHT22;18929;48.008;10.882;2023-05-07T06:36:06;15.30;99.90
32476;DHT22;18929;48.008;10.882;2023-05-07T06:38:33;15.80;99.90
32476;DHT22;18929;48.008;10.882;2023-05-07T06:41:01;16.00;99.90
32476;DHT22;18929;48.008;10.882;2023-05-07T06:43:28;16.00;99.90
32476;DHT22;18929;48.008;10.882;2023-05-07T06:45:55;16.10;99.90
32476;DHT22;18929;48.008;10.882;2023-05-07T06:48:21;16.40;99.90
32476;DHT22;18929;48.008;10.882;2023-05-07T06:50:50;16.20;99.90
32476;DHT22;18929;48.008;10.882;2023-05-07T06:53:16;15.90;99.90
32476;DHT22;18929;48.008;10.882;2023-05-07T06:55:43;16.00;99.90
32476;DHT22;18929;48.008;10.882;2023-05-07T06:58:10;16.20;99.90
32476;DHT22;18929;48.008;10.882;2023-05-07T07:00:37;16.40;99.90
32476;DHT22;18929;48.008;10.882;2023-05-07T07:03:04;16.40;99.90
32476;DHT22;18929;48.008;10.882;2023-05-07T07:05:31;16.50;99.90
32476;DHT22;18929;48.008;10.882;2023-05-07T07:07:59;16.70;99.90
32476;DHT22;18929;48.008;10.882;2023-05-07T07:10:26;16.80;99.90
32476;DHT22;18929;48.008;10.882;2023-05-07T07:12:53;17.20;99.90
32476;DHT22;18929;48.008;10.882;2023-05-07T07:15:20;17.40;99.90
32476;DHT22;18929;48.008;10.882;2023-05-07T07:17:47;17.10;99.90
32476;DHT22;18929;48.008;10.882;2023-05-07T07:20:14;17.10;99.90
32476;DHT22;18929;48.008;10.882;2023-05-07T07:22:41;16.80;99.90
32476;DHT22;18929;48.008;10.882;2023-05-07T07:25:10;16.90;99.90
32476;DHT22;18929;48.008;10.882;2023-05-07T07:27:37;16.60;99.90
32476;DHT22;18929;48.008;10.882;2023-05-07T07:30:05;17.10;99.90
32476;DHT22;18929;48.008;10.882;2023-05-07T07:32:32;17.00;99.90
32476;DHT22;18929;48.008;10.882;2023-05-07T07:34:59;16.80;99.90
32476;DHT22;18929;48.008;10.882;2023-05-07T07:37:27;17.30;99.90
32476;DHT22;18929;48.008;10.882;2023-05-07T07:39:53;17.60;99.90
32476;DHT22;18929;48.008;10.882;2023-05-07T07:42:21;17.60;99.90
32476;DHT22;18929;48.008;10.882;2023-05-07T07:44:48;17.00;99.90
32476;DHT22;18929;48.008;10.882;2023-05-07T07:47:15;17.40;99.90
32476;DHT22;18929;48.008;10.882;2023-05-07T07:49:42;17.90;99.90
32476;DHT22;18929;48.008;10.882;2023-05-07T07:52:09;17.60;99.90
32476;DHT22;18929;48.008;10.882;2023-05-07T07:54:36;17.50;99.90
32476;DHT22;18929;48.008;10.882;2023-05-07T07:57:02;17.50;99.90
32476;DHT22;18929;48.008;10.882;2023-05-07T07:59:30;17.40;99.90
32476;DHT22;18929;48.008;10.882;2023-05-07T08:01:57;17.40;99.90
32476;DHT22;18929;48.008;10.882;2023-05-07T08:04:24;18.00;99.90
32476;DHT22;18929;48.008;10.882;2023-05-07T08:06:51;17.90;99.90
32476;DHT22;18929;48.008;10.882;2023-05-07T08:09:19;17.90;99.90
32476;DHT22;18929;48.008;10.882;2023-05-07T08:11:47;17.20;99.90
32476;DHT22;18929;48.008;10.882;2023-05-07T08:14:13;17.20;99.90
32476;DHT22;18929;48.008;10.882;2023-05-07T08:16:42;17.30;99.90
32476;DHT22;18929;48.008;10.882;2023-05-07T08:19:09;17.80;99.90
32476;DHT22;18929;48.008;10.882;2023-05-07T08:21:38;17.90;99.90
32476;DHT22;18929;48.008;10.882;2023-05-07T08:24:05;17.80;99.90
32476;DHT22;18929;48.008;10.882;2023-05-07T08:26:32;18.70;99.90
32476;DHT22;18929;48.008;10.882;2023-05-07T08:28:58;19.00;99.90
32476;DHT22;18929;48.008;10.882;2023-05-07T08:31:25;18.70;99.90
32476;DHT22;18929;48.008;10.882;2023-05-07T08:33:53;18.50;99.90
32476;DHT22;18929;48.008;10.882;2023-05-07T08:36:20;18.60;99.90
32476;DHT22;18929;48.008;10.882;2023-05-07T08:38:47;18.50;99.90
32476;DHT22;18929;48.008;10.882;2023-05-07T08:41:15;19.10;99.90
32476;DHT22;18929;48.008;10.882;2023-05-07T08:43:41;18.80;99.90
32476;DHT22;18929;48.008;10.882;2023-05-07T08:46:12;18.90;99.90
32476;DHT22;18929;48.008;10.882;2023-05-07T08:48:43;19.20;99.90
32476;DHT22;18929;48.008;10.882;2023-05-07T08:51:12;19.30;99.90
32476;DHT22;18929;48.008;10.882;2023-05-07T08:53:39;19.50;99.90
32476;DHT22;18929;48.008;10.882;2023-05-07T08:56:07;18.10;99.90
32476;DHT22;18929;48.008;10.882;2023-05-07T08:58:34;18.80;99.90
32476;DHT22;18929;48.008;10.882;2023-05-07T09:01:01;19.30;99.90
32476;DHT22;18929;48.008;10.882;2023-05-07T09:03:30;19.00;99.90
32476;DHT22;18929;48.008;10.882;2023-05-07T09:05:57;19.30;99.90
32476;DHT22;18929;48.008;10.882;2023-05-07T09:08:25;19.00;99.90
32476;DHT22;18929;48.008;10.882;2023-05-07T09:10:54;19.30;99.90
32476;DHT22;18929;48.008;10.882;2023-05-07T09:13:21;18.90;99.90
32476;DHT22;18929;48.008;10.882;2023-05-07T09:15:48;19.50;99.90
32476;DHT22;18929;48.008;10.882;2023-05-07T09:18:14;19.70;99.90
32476;DHT22;18929;48.008;10.882;2023-05-07T09:20:41;19.60;99.90
32476;DHT22;18929;48.008;10.882;2023-05-07T09:23:08;19.20;99.90
32476;DHT22;18929;48.008;10.882;2023-05-07T09:25:36;19.50;99.90
32476;DHT22;18929;48.008;10.882;2023-05-07T09:28:04;19.70;99.90
32476;DHT22;18929;48.008;10.882;2023-05-07T09:30:33;19.70;99.90
32476;DHT22;18929;48.008;10.882;2023-05-07T09:33:01;19.70;99.90
32476;DHT22;18929;48.008;10.882;2023-05-07T09:35:28;19.90;99.90
32476;DHT22;18929;48.008;10.882;2023-05-07T09:37:55;20.00;99.90
32476;DHT22;18929;48.008;10.882;2023-05-07T09:40:22;19.70;99.90
32476;DHT22;18929;48.008;10.882;2023-05-07T09:42:51;19.90;99.90
32476;DHT22;18929;48.008;10.882;2023-05-07T09:45:21;19.70;99.90
32476;DHT22;18929;48.008;10.882;2023-05-07T09:47:48;19.60;99.90
32476;DHT22;18929;48.008;10.882;2023-05-07T09:50:16;19.90;99.90
32476;DHT22;18929;48.008;10.882;2023-05-07T09:52:42;20.10;99.90
32476;DHT22;18929;48.008;10.882;2023-05-07T09:55:10;20.20;99.90
32476;DHT22;18929;48.008;10.882;2023-05-07T09:57:38;20.30;99.90
32476;DHT22;18929;48.008;10.882;2023-05-07T10:00:07;20.60;99.90
32476;DHT22;18929;48.008;10.882;2023-05-07T10:02:35;20.60;99.90
32476;DHT22;18929;48.008;10.882;2023-05-07T10:05:02;20.90;99.90
32476;DHT22;18929;48.008;10.882;2023-05-07T10:07:29;21.10;99.90
32476;DHT22;18929;48.008;10.882;2023-05-07T10:09:56;20.10;99.90
32476;DHT22;18929;48.008;10.882;2023-05-07T10:12:24;20.50;99.90
32476;DHT22;18929;48.008;10.882;2023-05-07T10:14:51;20.20;99.90
32476;DHT22;18929;48.008;10.882;2023-05-07T10:17:20;20.60;99.90
32476;DHT22;18929;48.008;10.882;2023-05-07T10:19:49;20.60;99.90
32476;DHT22;18929;48.008;10.882;2023-05-07T10:22:17;20.50;99.90
32476;DHT22;18929;48.008;10.882;2023-05-07T10:24:44;20.60;99.90
32476;DHT22;18929;48.008;10.882;2023-05-07T10:27:12;20.40;99.90
32476;DHT22;18929;48.008;10.882;2023-05-07T10:29:43;20.90;99.90
32476;DHT22;18929;48.008;10.882;2023-05-07T10:32:14;20.30;99.90
32476;DHT22;18929;48.008;10.882;2023-05-07T10:34:45;20.80;99.90
32476;DHT22;18929;48.008;10.882;2023-05-07T10:37:13;20.40;99.90
32476;DHT22;18929;48.008;10.882;2023-05-07T10:39:40;20.80;99.90
32476;DHT22;18929;48.008;10.882;2023-05-07T10:42:08;21.10;99.90
32476;DHT22;18929;48.008;10.882;2023-05-07T10:44:35;21.10;99.90
32476;DHT22;18929;48.008;10.882;2023-05-07T10:47:03;21.40;99.90
32476;DHT22;18929;48.008;10.882;2023-05-07T10:49:30;20.90;99.90
32476;DHT22;18929;48.008;10.882;2023-05-07T10:52:14;20.60;99.90
32476;DHT22;18929;48.008;10.882;2023-05-07T10:54:42;20.40;99.90
32476;DHT22;18929;48.008;10.882;2023-05-07T10:59:50;20.40;99.90
32476;DHT22;18929;48.008;10.882;2023-05-07T11:02:19;20.60;99.90
32476;DHT22;18929;48.008;10.882;2023-05-07T11:04:45;21.00;99.90
32476;DHT22;18929;48.008;10.882;2023-05-07T11:07:55;21.20;99.90
32476;DHT22;18929;48.008;10.882;2023-05-07T11:10:22;20.80;99.90
32476;DHT22;18929;48.008;10.882;2023-05-07T11:12:49;21.10;99.90
32476;DHT22;18929;48.008;10.882;2023-05-07T11:18:04;21.60;99.90
32476;DHT22;18929;48.008;10.882;2023-05-07T11:20:46;21.70;99.90
32476;DHT22;18929;48.008;10.882;2023-05-07T11:26:00;21.20;99.90
32476;DHT22;18929;48.008;10.882;2023-05-07T11:28:27;21.00;99.90
32476;DHT22;18929;48.008;10.882;2023-05-07T11:30:54;21.30;99.90
32476;DHT22;18929;48.008;10.882;2023-05-07T11:33:21;21.30;99.90
32476;DHT22;18929;48.008;10.882;2023-05-07T11:35:50;21.30;99.90
32476;DHT22;18929;48.008;10.882;2023-05-07T11:38:17;21.20;99.90
32476;DHT22;18929;48.008;10.882;2023-05-07T11:40:48;21.20;99.90
32476;DHT22;18929;48.008;10.882;2023-05-07T11:43:17;21.00;99.90
32476;DHT22;18929;48.008;10.882;2023-05-07T11:45:44;20.70;99.90
32476;DHT22;18929;48.008;10.882;2023-05-07T11:48:11;20.90;99.90
32476;DHT22;18929;48.008;10.882;2023-05-07T11:50:48;21.10;99.90
32476;DHT22;18929;48.008;10.882;2023-05-07T11:53:16;20.80;99.90
32476;DHT22;18929;48.008;10.882;2023-05-07T11:55:43;21.00;99.90
32476;DHT22;18929;48.008;10.882;2023-05-07T11:58:12;21.00;99.90
32476;DHT22;18929;48.008;10.882;2023-05-07T12:00:40;20.90;99.90
32476;DHT22;18929;48.008;10.882;2023-05-07T12:03:14;20.90;99.90
32476;DHT22;18929;48.008;10.882;2023-05-07T12:05:41;21.20;99.90
32476;DHT22;18929;48.008;10.882;2023-05-07T12:08:08;21.30;99.90
32476;DHT22;18929;48.008;10.882;2023-05-07T12:10:34;21.80;99.90
32476;DHT22;18929;48.008;10.882;2023-05-07T12:13:13;21.80;99.90
32476;DHT22;18929;48.008;10.882;2023-05-07T12:15:41;21.20;99.90
32476;DHT22;18929;48.008;10.882;2023-05-07T12:18:08;21.20;99.90
32476;DHT22;18929;48.008;10.882;2023-05-07T12:20:38;21.20;99.90
32476;DHT22;18929;48.008;10.882;2023-05-07T12:23:05;21.60;99.90
32476;DHT22;18929;48.008;10.882;2023-05-07T12:25:32;21.70;99.90
32476;DHT22;18929;48.008;10.882;2023-05-07T12:28:01;21.70;99.90
32476;DHT22;18929;48.008;10.882;2023-05-07T12:30:27;21.70;99.90
32476;DHT22;18929;48.008;10.882;2023-05-07T12:32:56;21.80;99.90
32476;DHT22;18929;48.008;10.882;2023-05-07T12:35:26;21.70;99.90
32476;DHT22;18929;48.008;10.882;2023-05-07T12:37:56;22.10;99.90
32476;DHT22;18929;48.008;10.882;2023-05-07T12:40:24;22.20;99.90
32476;DHT22;18929;48.008;10.882;2023-05-07T12:42:52;22.10;99.90
32476;DHT22;18929;48.008;10.882;2023-05-07T12:45:20;22.30;99.90
32476;DHT22;18929;48.008;10.882;2023-05-07T12:47:47;22.10;99.90
32476;DHT22;18929;48.008;10.882;2023-05-07T12:50:15;22.40;99.90
32476;DHT22;18929;48.008;10.882;2023-05-07T12:52:42;21.90;99.90
32476;DHT22;18929;48.008;10.882;2023-05-07T12:55:12;21.90;99.90
32476;DHT22;18929;48.008;10.882;2023-05-07T12:57:39;22.30;99.90
32476;DHT22;18929;48.008;10.882;2023-05-07T13:00:06;22.60;99.90
32476;DHT22;18929;48.008;10.882;2023-05-07T13:02:34;22.50;99.90
32476;DHT22;18929;48.008;10.882;2023-05-07T13:05:01;22.60;99.90
32476;DHT22;18929;48.008;10.882;2023-05-07T13:07:29;22.40;99.90
32476;DHT22;18929;48.008;10.882;2023-05-07T13:09:56;22.10;99.90
32476;DHT22;18929;48.008;10.882;2023-05-07T13:12:22;22.40;99.90
32476;DHT22;18929;48.008;10.882;2023-05-07T13:14:49;22.30;99.90
32476;DHT22;18929;48.008;10.882;2023-05-07T13:17:16;22.20;99.90
32476;DHT22;18929;48.008;10.882;2023-05-07T13:19:44;22.20;99.90
32476;DHT22;18929;48.008;10.882;2023-05-07T13:22:10;21.90;99.90
32476;DHT22;18929;48.008;10.882;2023-05-07T13:24:41;21.90;99.90
32476;DHT22;18929;48.008;10.882;2023-05-07T13:27:09;22.20;99.90
32476;DHT22;18929;48.008;10.882;2023-05-07T13:29:35;22.50;99.90
32476;DHT22;18929;48.008;10.882;2023-05-07T13:32:02;22.80;99.90
32476;DHT22;18929;48.008;10.882;2023-05-07T13:34:29;22.90;99.90
32476;DHT22;18929;48.008;10.882;2023-05-07T13:36:56;22.90;99.90
32476;DHT22;18929;48.008;10.882;2023-05-07T13:39:23;22.80;99.90
32476;DHT22;18929;48.008;10.882;2023-05-07T13:41:51;22.80;99.90
32476;DHT22;18929;48.008;10.882;2023-05-07T13:44:18;22.90;99.90
32476;DHT22;18929;48.008;10.882;2023-05-07T13:46:59;22.80;99.90
32476;DHT22;18929;48.008;10.882;2023-05-07T13:49:26;22.20;99.90
32476;DHT22;18929;48.008;10.882;2023-05-07T13:51:52;22.50;99.90
32476;DHT22;18929;48.008;10.882;2023-05-07T13:54:19;22.70;99.90
32476;DHT22;18929;48.008;10.882;2023-05-07T13:56:46;23.00;99.90
32476;DHT22;18929;48.008;10.882;2023-05-07T13:59:14;22.80;99.90
32476;DHT22;18929;48.008;10.882;2023-05-07T14:01:41;22.70;99.90
32476;DHT22;18929;48.008;10.882;2023-05-07T14:04:08;22.90;99.90
32476;DHT22;18929;48.008;10.882;2023-05-07T14:06:35;22.80;99.90
32476;DHT22;18929;48.008;10.882;2023-05-07T14:09:02;22.50;99.90
32476;DHT22;18929;48.008;10.882;2023-05-07T14:11:29;22.50;99.90
32476;DHT22;18929;48.008;10.882;2023-05-07T14:13:56;22.10;99.90
32476;DHT22;18929;48.008;10.882;2023-05-07T14:16:25;21.80;99.90
32476;DHT22;18929;48.008;10.882;2023-05-07T14:18:51;21.50;99.90
32476;DHT22;18929;48.008;10.882;2023-05-07T14:21:18;21.30;99.90
32476;DHT22;18929;48.008;10.882;2023-05-07T14:23:45;21.30;99.90
32476;DHT22;18929;48.008;10.882;2023-05-07T14:26:12;21.30;99.90
32476;DHT22;18929;48.008;10.882;2023-05-07T14:28:39;21.60;99.90
32476;DHT22;18929;48.008;10.882;2023-05-07T14:31:11;20.70;99.90
32476;DHT22;18929;48.008;10.882;2023-05-07T14:33:39;21.10;99.90
32476;DHT22;18929;48.008;10.882;2023-05-07T14:36:06;21.20;99.90
32476;DHT22;18929;48.008;10.882;2023-05-07T14:38:33;21.30;99.90
32476;DHT22;18929;48.008;10.882;2023-05-07T14:40:59;21.00;99.90
32476;DHT22;18929;48.008;10.882;2023-05-07T14:43:26;21.40;99.90
32476;DHT22;18929;48.008;10.882;2023-05-07T14:45:53;20.80;99.90
32476;DHT22;18929;48.008;10.882;2023-05-07T14:48:20;21.00;99.90
32476;DHT22;18929;48.008;10.882;2023-05-07T14:50:48;21.20;99.90
32476;DHT22;18929;48.008;10.882;2023-05-07T14:53:15;21.50;99.90
32476;DHT22;18929;48.008;10.882;2023-05-07T14:55:42;21.60;99.90
32476;DHT22;18929;48.008;10.882;2023-05-07T14:58:09;21.40;99.90
32476;DHT22;18929;48.008;10.882;2023-05-07T15:00:36;21.30;99.90
32476;DHT22;18929;48.008;10.882;2023-05-07T15:03:04;20.80;99.90
32476;DHT22;18929;48.008;10.882;2023-05-07T15:05:32;21.20;99.90
32476;DHT22;18929;48.008;10.882;2023-05-07T15:08:00;21.70;99.90
32476;DHT22;18929;48.008;10.882;2023-05-07T15:10:27;21.40;99.90
32476;DHT22;18929;48.008;10.882;2023-05-07T15:12:54;21.70;99.90
32476;DHT22;18929;48.008;10.882;2023-05-07T15:15:20;21.60;99.90
32476;DHT22;18929;48.008;10.882;2023-05-07T15:17:47;21.70;99.90
32476;DHT22;18929;48.008;10.882;2023-05-07T15:20:14;21.70;99.90
32476;DHT22;18929;48.008;10.882;2023-05-07T15:22:41;21.90;99.90
32476;DHT22;18929;48.008;10.882;2023-05-07T15:30:41;21.90;99.90
32476;DHT22;18929;48.008;10.882;2023-05-07T15:33:08;21.70;99.90